sensor_id;sensor_type;location;lat;lon;timestamp;P1;durP1;ratioP1;P2;durP2;ratioP2
17052;SDS011;8643;48.824;11.422;2022-11-18T00:01:29;4.60;;;1.83;;
17052;SDS011;8643;48.824;11.422;2022-11-18T00:03:57;2.23;;;1.63;;
17052;SDS011;8643;48.824;11.422;2022-11-18T00:06:29;2.97;;;1.70;;
17052;SDS011;8643;48.824;11.422;2022-11-18T00:08:57;2.53;;;1.40;;
17052;SDS011;8643;48.824;11.422;2022-11-18T00:11:26;3.10;;;1.57;;
17052;SDS011;8643;48.824;11.422;2022-11-18T00:14:13;2.43;;;1.30;;
17052;SDS011;8643;48.824;11.422;2022-11-18T00:16:49;3.00;;;1.30;;
17052;SDS011;8643;48.824;11.422;2022-11-18T00:19:21;4.10;;;1.50;;
17052;SDS011;8643;48.824;11.422;2022-11-18T00:21:52;3.57;;;1.63;;
17052;SDS011;8643;48.824;11.422;2022-11-18T00:24:22;4.73;;;2.70;;
17052;SDS011;8643;48.824;11.422;2022-11-18T00:26:51;4.23;;;1.90;;
17052;SDS011;8643;48.824;11.422;2022-11-18T00:29:20;3.30;;;1.90;;
17052;SDS011;8643;48.824;11.422;2022-11-18T00:31:51;4.53;;;1.80;;
17052;SDS011;8643;48.824;11.422;2022-11-18T00:34:20;2.43;;;1.67;;
17052;SDS011;8643;48.824;11.422;2022-11-18T00:36:48;4.10;;;1.53;;
17052;SDS011;8643;48.824;11.422;2022-11-18T00:39:18;5.30;;;1.67;;
17052;SDS011;8643;48.824;11.422;2022-11-18T00:41:48;2.80;;;1.70;;
17052;SDS011;8643;48.824;11.422;2022-11-18T00:44:34;2.93;;;1.77;;
17052;SDS011;8643;48.824;11.422;2022-11-18T00:47:02;4.07;;;1.70;;
17052;SDS011;8643;48.824;11.422;2022-11-18T00:49:31;4.80;;;1.87;;
17052;SDS011;8643;48.824;11.422;2022-11-18T00:52:00;2.37;;;1.60;;
17052;SDS011;8643;48.824;11.422;2022-11-18T00:54:30;3.57;;;1.60;;
17052;SDS011;8643;48.824;11.422;2022-11-18T00:56:59;2.50;;;1.43;;
17052;SDS011;8643;48.824;11.422;2022-11-18T00:59:29;2.40;;;1.20;;
17052;SDS011;8643;48.824;11.422;2022-11-18T01:01:58;3.73;;;1.47;;
17052;SDS011;8643;48.824;11.422;2022-11-18T01:04:26;3.90;;;1.70;;
17052;SDS011;8643;48.824;11.422;2022-11-18T01:06:55;2.60;;;1.30;;
17052;SDS011;8643;48.824;11.422;2022-11-18T01:09:24;3.83;;;1.60;;
17052;SDS011;8643;48.824;11.422;2022-11-18T01:11:54;4.73;;;1.40;;
17052;SDS011;8643;48.824;11.422;2022-11-18T01:14:39;1.47;;;1.13;;
17052;SDS011;8643;48.824;11.422;2022-11-18T01:17:08;4.37;;;1.20;;
17052;SDS011;8643;48.824;11.422;2022-11-18T01:19:37;3.03;;;1.30;;
17052;SDS011;8643;48.824;11.422;2022-11-18T01:22:05;4.13;;;1.23;;
17052;SDS011;8643;48.824;11.422;2022-11-18T01:24:34;3.10;;;1.50;;
17052;SDS011;8643;48.824;11.422;2022-11-18T01:27:04;3.13;;;1.87;;
17052;SDS011;8643;48.824;11.422;2022-11-18T01:29:32;3.70;;;2.00;;
17052;SDS011;8643;48.824;11.422;2022-11-18T01:32:01;5.93;;;2.30;;
17052;SDS011;8643;48.824;11.422;2022-11-18T01:34:49;3.80;;;2.10;;
17052;SDS011;8643;48.824;11.422;2022-11-18T01:37:18;3.43;;;1.80;;
17052;SDS011;8643;48.824;11.422;2022-11-18T01:39:46;2.97;;;1.50;;
17052;SDS011;8643;48.824;11.422;2022-11-18T01:42:16;4.30;;;2.20;;
17052;SDS011;8643;48.824;11.422;2022-11-18T01:47:51;4.80;;;1.60;;
17052;SDS011;8643;48.824;11.422;2022-11-18T01:50:29;3.23;;;1.70;;
17052;SDS011;8643;48.824;11.422;2022-11-18T01:53:00;2.57;;;1.50;;
17052;SDS011;8643;48.824;11.422;2022-11-18T01:55:34;4.70;;;1.77;;
17052;SDS011;8643;48.824;11.422;2022-11-18T01:58:14;4.07;;;1.63;;
17052;SDS011;8643;48.824;11.422;2022-11-18T02:00:50;3.73;;;1.50;;
17052;SDS011;8643;48.824;11.422;2022-11-18T02:03:19;2.67;;;1.63;;
17052;SDS011;8643;48.824;11.422;2022-11-18T02:05:49;2.47;;;1.27;;
17052;SDS011;8643;48.824;11.422;2022-11-18T02:08:21;2.67;;;1.50;;
17052;SDS011;8643;48.824;11.422;2022-11-18T02:10:50;4.67;;;1.80;;
17052;SDS011;8643;48.824;11.422;2022-11-18T02:13:19;7.10;;;1.87;;
17052;SDS011;8643;48.824;11.422;2022-11-18T02:15:50;2.97;;;1.70;;
17052;SDS011;8643;48.824;11.422;2022-11-18T02:18:29;3.20;;;1.60;;
17052;SDS011;8643;48.824;11.422;2022-11-18T02:21:12;3.00;;;1.67;;
17052;SDS011;8643;48.824;11.422;2022-11-18T02:24:00;2.60;;;1.70;;
17052;SDS011;8643;48.824;11.422;2022-11-18T02:30:07;3.70;;;1.83;;
17052;SDS011;8643;48.824;11.422;2022-11-18T02:32:38;3.17;;;2.40;;
17052;SDS011;8643;48.824;11.422;2022-11-18T02:35:15;5.80;;;2.70;;
17052;SDS011;8643;48.824;11.422;2022-11-18T02:37:53;5.03;;;3.60;;
17052;SDS011;8643;48.824;11.422;2022-11-18T02:40:27;6.67;;;3.80;;
17052;SDS011;8643;48.824;11.422;2022-11-18T02:43:04;6.13;;;3.33;;
17052;SDS011;8643;48.824;11.422;2022-11-18T02:45:38;5.90;;;3.10;;
17052;SDS011;8643;48.824;11.422;2022-11-18T02:48:13;5.57;;;3.57;;
17052;SDS011;8643;48.824;11.422;2022-11-18T02:50:44;6.23;;;3.83;;
17052;SDS011;8643;48.824;11.422;2022-11-18T02:53:18;8.63;;;4.93;;
17052;SDS011;8643;48.824;11.422;2022-11-18T02:55:49;6.77;;;4.97;;
17052;SDS011;8643;48.824;11.422;2022-11-18T02:58:20;6.87;;;4.70;;
17052;SDS011;8643;48.824;11.422;2022-11-18T03:00:53;7.77;;;5.43;;
17052;SDS011;8643;48.824;11.422;2022-11-18T03:03:24;10.57;;;5.63;;
17052;SDS011;8643;48.824;11.422;2022-11-18T03:05:58;8.67;;;5.30;;
17052;SDS011;8643;48.824;11.422;2022-11-18T03:08:38;11.23;;;5.97;;
17052;SDS011;8643;48.824;11.422;2022-11-18T03:11:13;11.00;;;5.40;;
17052;SDS011;8643;48.824;11.422;2022-11-18T03:13:48;7.97;;;4.87;;
17052;SDS011;8643;48.824;11.422;2022-11-18T03:16:36;7.70;;;5.17;;
17052;SDS011;8643;48.824;11.422;2022-11-18T03:19:14;8.10;;;4.83;;
17052;SDS011;8643;48.824;11.422;2022-11-18T03:21:51;9.67;;;5.13;;
17052;SDS011;8643;48.824;11.422;2022-11-18T03:24:34;10.47;;;5.47;;
17052;SDS011;8643;48.824;11.422;2022-11-18T03:27:08;10.97;;;5.20;;
17052;SDS011;8643;48.824;11.422;2022-11-18T03:29:45;7.80;;;5.60;;
17052;SDS011;8643;48.824;11.422;2022-11-18T03:32:23;8.97;;;5.77;;
17052;SDS011;8643;48.824;11.422;2022-11-18T03:34:54;9.40;;;5.73;;
17052;SDS011;8643;48.824;11.422;2022-11-18T03:37:28;10.60;;;5.77;;
17052;SDS011;8643;48.824;11.422;2022-11-18T03:40:03;8.73;;;5.50;;
17052;SDS011;8643;48.824;11.422;2022-11-18T03:42:39;10.57;;;5.93;;
17052;SDS011;8643;48.824;11.422;2022-11-18T03:45:13;9.57;;;5.23;;
17052;SDS011;8643;48.824;11.422;2022-11-18T03:47:53;6.77;;;4.57;;
17052;SDS011;8643;48.824;11.422;2022-11-18T03:50:28;10.43;;;5.10;;
17052;SDS011;8643;48.824;11.422;2022-11-18T03:53:02;7.30;;;4.83;;
17052;SDS011;8643;48.824;11.422;2022-11-18T03:55:34;9.37;;;5.67;;
17052;SDS011;8643;48.824;11.422;2022-11-18T03:58:08;8.70;;;4.67;;
17052;SDS011;8643;48.824;11.422;2022-11-18T04:00:46;9.93;;;5.40;;
17052;SDS011;8643;48.824;11.422;2022-11-18T04:03:21;11.10;;;5.33;;
17052;SDS011;8643;48.824;11.422;2022-11-18T04:05:52;9.90;;;5.80;;
17052;SDS011;8643;48.824;11.422;2022-11-18T04:08:33;8.67;;;5.67;;
17052;SDS011;8643;48.824;11.422;2022-11-18T04:11:08;12.33;;;6.17;;
17052;SDS011;8643;48.824;11.422;2022-11-18T04:14:00;10.17;;;6.00;;
17052;SDS011;8643;48.824;11.422;2022-11-18T04:16:37;12.87;;;6.60;;
17052;SDS011;8643;48.824;11.422;2022-11-18T04:19:08;12.73;;;6.83;;
17052;SDS011;8643;48.824;11.422;2022-11-18T04:21:37;11.03;;;6.30;;
17052;SDS011;8643;48.824;11.422;2022-11-18T04:24:05;11.90;;;6.07;;
17052;SDS011;8643;48.824;11.422;2022-11-18T04:26:34;11.37;;;6.07;;
17052;SDS011;8643;48.824;11.422;2022-11-18T04:29:03;11.27;;;6.40;;
17052;SDS011;8643;48.824;11.422;2022-11-18T04:31:31;12.70;;;6.50;;
17052;SDS011;8643;48.824;11.422;2022-11-18T04:34:00;11.80;;;6.80;;
17052;SDS011;8643;48.824;11.422;2022-11-18T04:36:29;12.77;;;7.57;;
17052;SDS011;8643;48.824;11.422;2022-11-18T04:38:58;13.63;;;7.17;;
17052;SDS011;8643;48.824;11.422;2022-11-18T04:41:26;13.27;;;7.10;;
17052;SDS011;8643;48.824;11.422;2022-11-18T04:44:08;12.53;;;6.83;;
17052;SDS011;8643;48.824;11.422;2022-11-18T04:46:39;14.43;;;6.37;;
17052;SDS011;8643;48.824;11.422;2022-11-18T04:49:08;11.83;;;5.70;;
17052;SDS011;8643;48.824;11.422;2022-11-18T04:51:40;10.33;;;5.27;;
17052;SDS011;8643;48.824;11.422;2022-11-18T04:54:10;11.77;;;6.23;;
17052;SDS011;8643;48.824;11.422;2022-11-18T04:56:40;12.37;;;5.70;;
17052;SDS011;8643;48.824;11.422;2022-11-18T04:59:15;15.97;;;6.20;;
17052;SDS011;8643;48.824;11.422;2022-11-18T05:01:47;11.33;;;5.80;;
17052;SDS011;8643;48.824;11.422;2022-11-18T05:04:17;12.60;;;6.70;;
17052;SDS011;8643;48.824;11.422;2022-11-18T05:06:49;13.20;;;6.37;;
17052;SDS011;8643;48.824;11.422;2022-11-18T05:09:18;13.07;;;6.33;;
17052;SDS011;8643;48.824;11.422;2022-11-18T05:11:51;12.90;;;6.97;;
17052;SDS011;8643;48.824;11.422;2022-11-18T05:14:37;10.90;;;5.83;;
17052;SDS011;8643;48.824;11.422;2022-11-18T05:17:14;13.73;;;6.40;;
17052;SDS011;8643;48.824;11.422;2022-11-18T05:19:43;9.17;;;5.47;;
17052;SDS011;8643;48.824;11.422;2022-11-18T05:22:12;11.67;;;6.40;;
17052;SDS011;8643;48.824;11.422;2022-11-18T05:24:41;14.73;;;6.97;;
17052;SDS011;8643;48.824;11.422;2022-11-18T05:27:10;13.37;;;7.00;;
17052;SDS011;8643;48.824;11.422;2022-11-18T05:29:39;14.23;;;6.90;;
17052;SDS011;8643;48.824;11.422;2022-11-18T05:32:08;10.33;;;6.27;;
17052;SDS011;8643;48.824;11.422;2022-11-18T05:34:36;15.70;;;7.37;;
17052;SDS011;8643;48.824;11.422;2022-11-18T05:37:08;17.87;;;8.03;;
17052;SDS011;8643;48.824;11.422;2022-11-18T05:39:38;18.97;;;8.40;;
17052;SDS011;8643;48.824;11.422;2022-11-18T05:42:07;17.63;;;8.30;;
17052;SDS011;8643;48.824;11.422;2022-11-18T05:44:54;22.40;;;9.70;;
17052;SDS011;8643;48.824;11.422;2022-11-18T05:47:24;18.07;;;8.83;;
17052;SDS011;8643;48.824;11.422;2022-11-18T05:49:53;14.67;;;8.23;;
17052;SDS011;8643;48.824;11.422;2022-11-18T05:52:21;15.77;;;9.07;;
17052;SDS011;8643;48.824;11.422;2022-11-18T05:54:51;23.70;;;11.90;;
17052;SDS011;8643;48.824;11.422;2022-11-18T05:57:20;23.17;;;11.83;;
17052;SDS011;8643;48.824;11.422;2022-11-18T05:59:48;19.87;;;10.40;;
17052;SDS011;8643;48.824;11.422;2022-11-18T06:02:17;26.73;;;11.33;;
17052;SDS011;8643;48.824;11.422;2022-11-18T06:04:49;21.40;;;11.63;;
17052;SDS011;8643;48.824;11.422;2022-11-18T06:07:24;18.23;;;10.07;;
17052;SDS011;8643;48.824;11.422;2022-11-18T06:10:00;14.30;;;8.63;;
17052;SDS011;8643;48.824;11.422;2022-11-18T06:12:33;15.80;;;8.57;;
17052;SDS011;8643;48.824;11.422;2022-11-18T06:15:08;13.50;;;8.07;;
17052;SDS011;8643;48.824;11.422;2022-11-18T06:17:42;13.27;;;7.33;;
17052;SDS011;8643;48.824;11.422;2022-11-18T06:20:18;13.43;;;7.30;;
17052;SDS011;8643;48.824;11.422;2022-11-18T06:22:48;11.13;;;7.40;;
17052;SDS011;8643;48.824;11.422;2022-11-18T06:25:22;11.60;;;7.03;;
17052;SDS011;8643;48.824;11.422;2022-11-18T06:27:51;14.77;;;8.23;;
17052;SDS011;8643;48.824;11.422;2022-11-18T06:30:25;18.03;;;8.73;;
17052;SDS011;8643;48.824;11.422;2022-11-18T06:32:53;16.50;;;9.00;;
17052;SDS011;8643;48.824;11.422;2022-11-18T06:35:22;17.63;;;8.97;;
17052;SDS011;8643;48.824;11.422;2022-11-18T06:37:51;20.10;;;9.70;;
17052;SDS011;8643;48.824;11.422;2022-11-18T06:40:19;16.33;;;9.30;;
17052;SDS011;8643;48.824;11.422;2022-11-18T06:42:49;16.67;;;10.13;;
17052;SDS011;8643;48.824;11.422;2022-11-18T06:45:35;23.87;;;13.83;;
17052;SDS011;8643;48.824;11.422;2022-11-18T06:48:04;26.57;;;16.50;;
17052;SDS011;8643;48.824;11.422;2022-11-18T06:50:33;18.27;;;12.50;;
17052;SDS011;8643;48.824;11.422;2022-11-18T06:53:02;16.00;;;9.30;;
17052;SDS011;8643;48.824;11.422;2022-11-18T06:55:33;17.03;;;9.50;;
17052;SDS011;8643;48.824;11.422;2022-11-18T06:58:02;17.90;;;10.13;;
17052;SDS011;8643;48.824;11.422;2022-11-18T07:00:30;16.40;;;11.17;;
17052;SDS011;8643;48.824;11.422;2022-11-18T07:02:58;12.67;;;9.10;;
17052;SDS011;8643;48.824;11.422;2022-11-18T07:05:29;12.07;;;8.07;;
17052;SDS011;8643;48.824;11.422;2022-11-18T07:07:57;11.07;;;7.90;;
17052;SDS011;8643;48.824;11.422;2022-11-18T07:10:25;11.57;;;7.63;;
17052;SDS011;8643;48.824;11.422;2022-11-18T07:12:55;10.50;;;7.20;;
17052;SDS011;8643;48.824;11.422;2022-11-18T07:15:24;13.83;;;9.40;;
17052;SDS011;8643;48.824;11.422;2022-11-18T07:17:52;11.40;;;7.73;;
17052;SDS011;8643;48.824;11.422;2022-11-18T07:20:21;11.10;;;7.50;;
17052;SDS011;8643;48.824;11.422;2022-11-18T07:22:51;9.23;;;5.40;;
17052;SDS011;8643;48.824;11.422;2022-11-18T07:25:19;5.57;;;4.20;;
17052;SDS011;8643;48.824;11.422;2022-11-18T07:27:48;5.27;;;3.90;;
17052;SDS011;8643;48.824;11.422;2022-11-18T07:30:18;4.90;;;2.60;;
17052;SDS011;8643;48.824;11.422;2022-11-18T07:32:47;4.33;;;2.67;;
17052;SDS011;8643;48.824;11.422;2022-11-18T07:35:15;2.83;;;2.50;;
17052;SDS011;8643;48.824;11.422;2022-11-18T07:37:44;2.80;;;2.13;;
17052;SDS011;8643;48.824;11.422;2022-11-18T07:40:12;2.97;;;1.30;;
17052;SDS011;8643;48.824;11.422;2022-11-18T07:42:41;1.90;;;1.43;;
17052;SDS011;8643;48.824;11.422;2022-11-18T07:45:31;3.00;;;1.83;;
17052;SDS011;8643;48.824;11.422;2022-11-18T07:48:00;2.10;;;1.50;;
17052;SDS011;8643;48.824;11.422;2022-11-18T07:50:29;2.00;;;1.67;;
17052;SDS011;8643;48.824;11.422;2022-11-18T07:52:57;3.60;;;1.33;;
17052;SDS011;8643;48.824;11.422;2022-11-18T07:55:25;2.87;;;1.30;;
17052;SDS011;8643;48.824;11.422;2022-11-18T07:57:57;4.20;;;1.93;;
17052;SDS011;8643;48.824;11.422;2022-11-18T08:00:26;2.30;;;1.67;;
17052;SDS011;8643;48.824;11.422;2022-11-18T08:02:56;3.03;;;1.73;;
17052;SDS011;8643;48.824;11.422;2022-11-18T08:05:24;3.33;;;1.70;;
17052;SDS011;8643;48.824;11.422;2022-11-18T08:07:53;2.50;;;1.90;;
17052;SDS011;8643;48.824;11.422;2022-11-18T08:10:21;2.60;;;2.07;;
17052;SDS011;8643;48.824;11.422;2022-11-18T08:12:50;4.47;;;1.77;;
17052;SDS011;8643;48.824;11.422;2022-11-18T08:15:19;3.93;;;1.90;;
17052;SDS011;8643;48.824;11.422;2022-11-18T08:17:47;5.63;;;3.00;;
17052;SDS011;8643;48.824;11.422;2022-11-18T08:20:17;3.67;;;1.70;;
17052;SDS011;8643;48.824;11.422;2022-11-18T08:22:46;3.70;;;1.87;;
17052;SDS011;8643;48.824;11.422;2022-11-18T08:25:15;4.07;;;2.30;;
17052;SDS011;8643;48.824;11.422;2022-11-18T08:27:43;2.40;;;1.67;;
17052;SDS011;8643;48.824;11.422;2022-11-18T08:30:12;2.40;;;1.40;;
17052;SDS011;8643;48.824;11.422;2022-11-18T08:32:41;2.70;;;1.30;;
17052;SDS011;8643;48.824;11.422;2022-11-18T08:35:09;4.60;;;2.10;;
17052;SDS011;8643;48.824;11.422;2022-11-18T08:37:39;2.00;;;1.47;;
17052;SDS011;8643;48.824;11.422;2022-11-18T08:40:08;3.37;;;2.87;;
17052;SDS011;8643;48.824;11.422;2022-11-18T08:42:38;3.13;;;1.63;;
17052;SDS011;8643;48.824;11.422;2022-11-18T08:45:06;2.53;;;1.00;;
17052;SDS011;8643;48.824;11.422;2022-11-18T08:47:36;1.50;;;1.03;;
17052;SDS011;8643;48.824;11.422;2022-11-18T08:50:05;1.70;;;1.13;;
17052;SDS011;8643;48.824;11.422;2022-11-18T08:52:37;1.27;;;0.90;;
17052;SDS011;8643;48.824;11.422;2022-11-18T08:55:07;2.83;;;0.97;;
17052;SDS011;8643;48.824;11.422;2022-11-18T08:57:36;1.43;;;1.07;;
17052;SDS011;8643;48.824;11.422;2022-11-18T09:00:05;3.13;;;2.30;;
17052;SDS011;8643;48.824;11.422;2022-11-18T09:02:35;2.30;;;1.30;;
17052;SDS011;8643;48.824;11.422;2022-11-18T09:05:03;1.47;;;1.00;;
17052;SDS011;8643;48.824;11.422;2022-11-18T09:07:32;1.80;;;1.33;;
17052;SDS011;8643;48.824;11.422;2022-11-18T09:10:01;2.47;;;1.20;;
17052;SDS011;8643;48.824;11.422;2022-11-18T09:12:32;2.30;;;0.90;;
17052;SDS011;8643;48.824;11.422;2022-11-18T09:15:00;3.17;;;0.90;;
17052;SDS011;8643;48.824;11.422;2022-11-18T09:17:39;1.30;;;0.93;;
17052;SDS011;8643;48.824;11.422;2022-11-18T09:20:08;2.03;;;1.00;;
17052;SDS011;8643;48.824;11.422;2022-11-18T09:22:37;1.50;;;0.93;;
17052;SDS011;8643;48.824;11.422;2022-11-18T09:25:06;1.30;;;1.03;;
17052;SDS011;8643;48.824;11.422;2022-11-18T09:27:36;1.80;;;1.00;;
17052;SDS011;8643;48.824;11.422;2022-11-18T09:30:05;1.60;;;0.97;;
17052;SDS011;8643;48.824;11.422;2022-11-18T09:32:35;2.10;;;0.90;;
17052;SDS011;8643;48.824;11.422;2022-11-18T09:35:03;0.97;;;0.70;;
17052;SDS011;8643;48.824;11.422;2022-11-18T09:37:32;1.90;;;1.23;;
17052;SDS011;8643;48.824;11.422;2022-11-18T09:40:00;1.37;;;0.80;;
17052;SDS011;8643;48.824;11.422;2022-11-18T09:42:34;1.73;;;1.40;;
17052;SDS011;8643;48.824;11.422;2022-11-18T09:45:24;0.93;;;0.77;;
17052;SDS011;8643;48.824;11.422;2022-11-18T09:48:06;1.37;;;1.00;;
17052;SDS011;8643;48.824;11.422;2022-11-18T09:50:42;1.63;;;1.27;;
17052;SDS011;8643;48.824;11.422;2022-11-18T09:53:17;3.27;;;1.20;;
17052;SDS011;8643;48.824;11.422;2022-11-18T09:55:47;4.03;;;1.63;;
17052;SDS011;8643;48.824;11.422;2022-11-18T09:58:21;4.67;;;3.00;;
17052;SDS011;8643;48.824;11.422;2022-11-18T10:00:59;3.00;;;1.93;;
17052;SDS011;8643;48.824;11.422;2022-11-18T10:03:30;2.10;;;1.90;;
17052;SDS011;8643;48.824;11.422;2022-11-18T10:06:02;2.90;;;0.97;;
17052;SDS011;8643;48.824;11.422;2022-11-18T10:08:54;1.57;;;0.90;;
17052;SDS011;8643;48.824;11.422;2022-11-18T10:11:33;3.03;;;2.73;;
17052;SDS011;8643;48.824;11.422;2022-11-18T10:14:22;2.90;;;1.93;;
17052;SDS011;8643;48.824;11.422;2022-11-18T10:17:01;3.03;;;0.90;;
17052;SDS011;8643;48.824;11.422;2022-11-18T10:19:41;2.30;;;1.10;;
17052;SDS011;8643;48.824;11.422;2022-11-18T10:22:20;1.23;;;0.70;;
17052;SDS011;8643;48.824;11.422;2022-11-18T10:24:55;2.30;;;0.80;;
17052;SDS011;8643;48.824;11.422;2022-11-18T10:27:32;1.27;;;0.90;;
17052;SDS011;8643;48.824;11.422;2022-11-18T10:30:10;2.50;;;0.77;;
17052;SDS011;8643;48.824;11.422;2022-11-18T10:35:29;3.73;;;2.20;;
17052;SDS011;8643;48.824;11.422;2022-11-18T10:38:03;3.83;;;2.23;;
17052;SDS011;8643;48.824;11.422;2022-11-18T10:40:34;4.20;;;2.53;;
17052;SDS011;8643;48.824;11.422;2022-11-18T10:43:10;3.67;;;2.13;;
17052;SDS011;8643;48.824;11.422;2022-11-18T10:45:41;0.87;;;0.80;;
17052;SDS011;8643;48.824;11.422;2022-11-18T10:48:16;1.37;;;1.10;;
17052;SDS011;8643;48.824;11.422;2022-11-18T10:50:45;1.27;;;0.70;;
17052;SDS011;8643;48.824;11.422;2022-11-18T10:53:35;2.10;;;0.90;;
17052;SDS011;8643;48.824;11.422;2022-11-18T10:56:05;3.23;;;0.83;;
17052;SDS011;8643;48.824;11.422;2022-11-18T10:58:35;0.73;;;0.70;;
17052;SDS011;8643;48.824;11.422;2022-11-18T11:01:18;2.13;;;1.20;;
17052;SDS011;8643;48.824;11.422;2022-11-18T11:03:55;2.17;;;0.90;;
17052;SDS011;8643;48.824;11.422;2022-11-18T11:06:28;2.40;;;1.57;;
17052;SDS011;8643;48.824;11.422;2022-11-18T11:09:01;2.83;;;1.60;;
17052;SDS011;8643;48.824;11.422;2022-11-18T11:11:34;1.73;;;0.90;;
17052;SDS011;8643;48.824;11.422;2022-11-18T11:14:18;4.90;;;1.30;;
17052;SDS011;8643;48.824;11.422;2022-11-18T11:16:57;4.07;;;1.40;;
17052;SDS011;8643;48.824;11.422;2022-11-18T11:19:32;2.53;;;1.07;;
17052;SDS011;8643;48.824;11.422;2022-11-18T11:22:10;3.23;;;1.40;;
17052;SDS011;8643;48.824;11.422;2022-11-18T11:24:39;5.30;;;1.70;;
17052;SDS011;8643;48.824;11.422;2022-11-18T11:27:19;2.17;;;1.30;;
17052;SDS011;8643;48.824;11.422;2022-11-18T11:30:30;3.50;;;1.00;;
17052;SDS011;8643;48.824;11.422;2022-11-18T11:33:19;2.17;;;0.63;;
17052;SDS011;8643;48.824;11.422;2022-11-18T11:38:53;1.43;;;0.80;;
17052;SDS011;8643;48.824;11.422;2022-11-18T11:41:34;5.10;;;1.40;;
17052;SDS011;8643;48.824;11.422;2022-11-18T11:44:25;6.37;;;2.07;;
17052;SDS011;8643;48.824;11.422;2022-11-18T11:47:12;2.23;;;1.30;;
17052;SDS011;8643;48.824;11.422;2022-11-18T11:50:13;1.27;;;0.93;;
17052;SDS011;8643;48.824;11.422;2022-11-18T11:52:58;2.37;;;1.17;;
17052;SDS011;8643;48.824;11.422;2022-11-18T11:55:45;1.33;;;1.03;;
17052;SDS011;8643;48.824;11.422;2022-11-18T11:58:30;2.03;;;0.80;;
17052;SDS011;8643;48.824;11.422;2022-11-18T12:01:26;1.20;;;0.87;;
17052;SDS011;8643;48.824;11.422;2022-11-18T12:04:04;1.37;;;1.13;;
17052;SDS011;8643;48.824;11.422;2022-11-18T12:06:57;1.73;;;0.80;;
17052;SDS011;8643;48.824;11.422;2022-11-18T12:09:31;1.53;;;0.87;;
17052;SDS011;8643;48.824;11.422;2022-11-18T12:12:11;4.00;;;1.07;;
17052;SDS011;8643;48.824;11.422;2022-11-18T12:15:03;1.97;;;0.90;;
17052;SDS011;8643;48.824;11.422;2022-11-18T12:17:54;1.20;;;0.90;;
17052;SDS011;8643;48.824;11.422;2022-11-18T12:20:38;1.40;;;1.10;;
17052;SDS011;8643;48.824;11.422;2022-11-18T12:23:12;1.67;;;1.20;;
17052;SDS011;8643;48.824;11.422;2022-11-18T12:25:51;2.80;;;1.57;;
17052;SDS011;8643;48.824;11.422;2022-11-18T12:28:22;3.63;;;1.40;;
17052;SDS011;8643;48.824;11.422;2022-11-18T12:34:03;1.90;;;1.23;;
17052;SDS011;8643;48.824;11.422;2022-11-18T12:36:46;6.43;;;1.30;;
17052;SDS011;8643;48.824;11.422;2022-11-18T12:42:39;0.67;;;0.67;;
17052;SDS011;8643;48.824;11.422;2022-11-18T12:48:31;1.73;;;1.40;;
17052;SDS011;8643;48.824;11.422;2022-11-18T12:54:19;2.00;;;1.60;;
17052;SDS011;8643;48.824;11.422;2022-11-18T12:56:54;1.77;;;1.50;;
17052;SDS011;8643;48.824;11.422;2022-11-18T12:59:26;1.70;;;1.30;;
17052;SDS011;8643;48.824;11.422;2022-11-18T13:02:19;1.43;;;0.90;;
17052;SDS011;8643;48.824;11.422;2022-11-18T13:05:03;1.77;;;1.37;;
17052;SDS011;8643;48.824;11.422;2022-11-18T13:07:37;2.97;;;1.30;;
17052;SDS011;8643;48.824;11.422;2022-11-18T13:10:29;2.47;;;1.33;;
17052;SDS011;8643;48.824;11.422;2022-11-18T13:13:02;2.03;;;1.50;;
17052;SDS011;8643;48.824;11.422;2022-11-18T13:15:31;3.47;;;1.37;;
17052;SDS011;8643;48.824;11.422;2022-11-18T13:18:18;1.77;;;1.30;;
17052;SDS011;8643;48.824;11.422;2022-11-18T13:20:53;1.20;;;0.93;;
17052;SDS011;8643;48.824;11.422;2022-11-18T13:23:28;2.10;;;1.00;;
17052;SDS011;8643;48.824;11.422;2022-11-18T13:26:24;1.50;;;1.30;;
17052;SDS011;8643;48.824;11.422;2022-11-18T13:29:05;1.83;;;1.60;;
17052;SDS011;8643;48.824;11.422;2022-11-18T13:32:00;4.10;;;1.80;;
17052;SDS011;8643;48.824;11.422;2022-11-18T13:34:47;10.97;;;3.90;;
17052;SDS011;8643;48.824;11.422;2022-11-18T13:37:18;3.70;;;1.97;;
17052;SDS011;8643;48.824;11.422;2022-11-18T13:39:49;2.70;;;2.00;;
17052;SDS011;8643;48.824;11.422;2022-11-18T13:42:19;4.57;;;3.20;;
17052;SDS011;8643;48.824;11.422;2022-11-18T13:44:53;2.10;;;1.20;;
17052;SDS011;8643;48.824;11.422;2022-11-18T13:47:27;2.70;;;1.90;;
17052;SDS011;8643;48.824;11.422;2022-11-18T13:50:03;2.20;;;1.40;;
17052;SDS011;8643;48.824;11.422;2022-11-18T13:52:49;2.40;;;1.80;;
17052;SDS011;8643;48.824;11.422;2022-11-18T13:55:34;4.00;;;2.60;;
17052;SDS011;8643;48.824;11.422;2022-11-18T13:58:12;4.40;;;3.20;;
17052;SDS011;8643;48.824;11.422;2022-11-18T14:01:24;3.77;;;1.50;;
17052;SDS011;8643;48.824;11.422;2022-11-18T14:03:56;6.10;;;4.20;;
17052;SDS011;8643;48.824;11.422;2022-11-18T14:06:30;3.17;;;2.07;;
17052;SDS011;8643;48.824;11.422;2022-11-18T14:09:05;8.60;;;4.30;;
17052;SDS011;8643;48.824;11.422;2022-11-18T14:11:44;5.40;;;3.63;;
17052;SDS011;8643;48.824;11.422;2022-11-18T14:14:27;3.90;;;2.80;;
17052;SDS011;8643;48.824;11.422;2022-11-18T14:17:04;6.67;;;4.67;;
17052;SDS011;8643;48.824;11.422;2022-11-18T14:19:43;9.83;;;5.37;;
17052;SDS011;8643;48.824;11.422;2022-11-18T14:22:14;7.10;;;4.53;;
17052;SDS011;8643;48.824;11.422;2022-11-18T14:24:52;11.53;;;7.37;;
17052;SDS011;8643;48.824;11.422;2022-11-18T14:27:34;7.53;;;5.43;;
17052;SDS011;8643;48.824;11.422;2022-11-18T14:30:25;6.53;;;3.50;;
17052;SDS011;8643;48.824;11.422;2022-11-18T14:33:17;8.43;;;5.70;;
17052;SDS011;8643;48.824;11.422;2022-11-18T14:35:48;6.23;;;3.63;;
17052;SDS011;8643;48.824;11.422;2022-11-18T14:38:22;11.03;;;7.10;;
17052;SDS011;8643;48.824;11.422;2022-11-18T14:41:13;9.83;;;6.90;;
17052;SDS011;8643;48.824;11.422;2022-11-18T14:44:09;11.50;;;7.20;;
17052;SDS011;8643;48.824;11.422;2022-11-18T14:46:40;12.50;;;6.53;;
17052;SDS011;8643;48.824;11.422;2022-11-18T14:49:13;11.03;;;6.63;;
17052;SDS011;8643;48.824;11.422;2022-11-18T14:51:45;9.00;;;5.87;;
17052;SDS011;8643;48.824;11.422;2022-11-18T14:54:14;9.57;;;6.90;;
17052;SDS011;8643;48.824;11.422;2022-11-18T14:56:52;6.30;;;5.00;;
17052;SDS011;8643;48.824;11.422;2022-11-18T14:59:24;5.00;;;3.87;;
17052;SDS011;8643;48.824;11.422;2022-11-18T15:01:53;4.87;;;3.93;;
17052;SDS011;8643;48.824;11.422;2022-11-18T15:04:25;5.43;;;4.60;;
17052;SDS011;8643;48.824;11.422;2022-11-18T15:06:54;5.13;;;3.70;;
17052;SDS011;8643;48.824;11.422;2022-11-18T15:09:22;5.77;;;4.10;;
17052;SDS011;8643;48.824;11.422;2022-11-18T15:11:51;9.07;;;6.80;;
17052;SDS011;8643;48.824;11.422;2022-11-18T15:14:20;11.83;;;7.83;;
17052;SDS011;8643;48.824;11.422;2022-11-18T15:16:48;10.53;;;7.43;;
17052;SDS011;8643;48.824;11.422;2022-11-18T15:19:16;8.90;;;6.20;;
17052;SDS011;8643;48.824;11.422;2022-11-18T15:21:46;9.80;;;6.40;;
17052;SDS011;8643;48.824;11.422;2022-11-18T15:24:15;23.03;;;12.57;;
17052;SDS011;8643;48.824;11.422;2022-11-18T15:26:44;37.17;;;21.13;;
17052;SDS011;8643;48.824;11.422;2022-11-18T15:29:14;15.40;;;10.10;;
17052;SDS011;8643;48.824;11.422;2022-11-18T15:31:45;11.73;;;7.60;;
17052;SDS011;8643;48.824;11.422;2022-11-18T15:34:15;10.07;;;8.20;;
17052;SDS011;8643;48.824;11.422;2022-11-18T15:36:47;9.83;;;7.60;;
17052;SDS011;8643;48.824;11.422;2022-11-18T15:39:16;11.20;;;7.73;;
17052;SDS011;8643;48.824;11.422;2022-11-18T15:41:45;10.63;;;8.77;;
17052;SDS011;8643;48.824;11.422;2022-11-18T15:44:13;9.00;;;6.83;;
17052;SDS011;8643;48.824;11.422;2022-11-18T15:46:43;10.33;;;7.43;;
17052;SDS011;8643;48.824;11.422;2022-11-18T15:49:13;10.43;;;8.03;;